createdAt,value
2018-03-31T00:01:34.106Z,37.03
2018-03-31T00:04:03.008Z,46.27
2018-03-31T00:06:32.388Z,32.23
2018-03-31T00:09:01.740Z,35.00
2018-03-31T00:11:30.436Z,28.27
2018-03-31T00:13:59.171Z,35.80
2018-03-31T00:16:27.572Z,39.73
2018-03-31T00:18:57.367Z,31.43
2018-03-31T00:21:25.971Z,33.67
2018-03-31T00:23:55.460Z,38.63
2018-03-31T00:26:24.859Z,37.83
2018-03-31T00:28:54.887Z,33.93
2018-03-31T00:31:24.868Z,35.53
2018-03-31T00:33:55.203Z,37.53
2018-03-31T00:36:23.756Z,36.77
2018-03-31T00:38:53.213Z,34.77
2018-03-31T00:41:21.595Z,32.73
2018-03-31T00:43:51.281Z,32.00
2018-03-31T00:46:24.556Z,42.97
2018-03-31T00:48:54.654Z,38.27
2018-03-31T00:51:23.328Z,35.33
2018-03-31T00:53:53.079Z,35.50
2018-03-31T00:56:22.883Z,34.23
2018-03-31T00:58:51.575Z,34.57
2018-03-31T01:01:19.994Z,34.20
2018-03-31T01:03:49.339Z,28.90
2018-03-31T01:06:18.640Z,28.77
2018-03-31T01:08:49.381Z,35.83
2018-03-31T01:11:18.296Z,26.67
2018-03-31T01:13:48.119Z,28.77
2018-03-31T01:16:17.687Z,41.67
2018-03-31T01:18:48.428Z,25.60
2018-03-31T01:21:17.570Z,39.23
2018-03-31T01:23:47.219Z,33.10
2018-03-31T01:26:18.568Z,36.40
2018-03-31T01:28:49.518Z,33.60
2018-03-31T01:31:18.235Z,30.50
2018-03-31T01:33:47.094Z,35.83
2018-03-31T01:36:15.950Z,35.03
2018-03-31T01:38:44.871Z,39.23
2018-03-31T01:41:13.939Z,46.97
2018-03-31T01:43:42.860Z,31.10
2018-03-31T01:46:11.651Z,28.67
2018-03-31T01:48:41.171Z,38.83
2018-03-31T01:51:11.294Z,39.07
2018-03-31T01:53:41.311Z,34.33
2018-03-31T01:56:10.398Z,46.03
2018-03-31T01:58:39.715Z,36.20
2018-03-31T02:01:09.170Z,30.40
2018-03-31T02:03:39.245Z,34.37
2018-03-31T02:06:08.804Z,38.67
2018-03-31T02:08:38.246Z,27.07
2018-03-31T02:11:08.708Z,33.70
2018-03-31T02:13:38.173Z,34.90
2018-03-31T02:16:07.170Z,43.97
2018-03-31T02:18:35.762Z,35.87
2018-03-31T02:21:04.962Z,35.63
2018-03-31T02:23:35.080Z,38.23
2018-03-31T02:26:03.653Z,35.20
2018-03-31T02:28:32.544Z,36.00
2018-03-31T02:31:02.121Z,36.37
2018-03-31T02:33:31.675Z,31.43
2018-03-31T02:36:00.771Z,32.53
2018-03-31T02:38:30.387Z,29.90
2018-03-31T02:40:59.779Z,35.90
2018-03-31T02:43:31.082Z,29.70
2018-03-31T02:45:59.548Z,36.93
2018-03-31T02:48:28.163Z,36.53
2018-03-31T02:50:57.360Z,29.90
2018-03-31T02:53:25.977Z,28.10
2018-03-31T02:55:56.628Z,32.10
2018-03-31T02:58:26.016Z,34.67
2018-03-31T03:00:54.798Z,40.90
2018-03-31T03:03:24.865Z,40.40
2018-03-31T03:05:53.967Z,33.13
2018-03-31T03:08:23.263Z,40.07
2018-03-31T03:10:52.415Z,36.70
2018-03-31T03:13:21.408Z,28.87
2018-03-31T03:15:51.031Z,28.50
2018-03-31T03:18:20.131Z,30.60
2018-03-31T03:20:49.126Z,36.43
2018-03-31T03:23:18.218Z,33.50
2018-03-31T03:25:46.380Z,36.33
2018-03-31T03:28:15.713Z,37.33
2018-03-31T03:30:45.769Z,40.17
2018-03-31T03:33:15.893Z,36.97
2018-03-31T03:35:46.092Z,52.93
2018-03-31T03:38:14.841Z,40.07
2018-03-31T03:40:43.931Z,39.50
2018-03-31T03:43:12.959Z,45.43
2018-03-31T03:45:42.613Z,29.60
2018-03-31T03:48:11.502Z,26.97
2018-03-31T03:50:39.602Z,38.33
2018-03-31T03:53:08.742Z,26.77
2018-03-31T03:55:38.615Z,41.83
2018-03-31T03:58:09.390Z,34.33
2018-03-31T04:00:37.834Z,34.30
2018-03-31T04:03:06.774Z,34.53
2018-03-31T04:05:34.733Z,38.47
2018-03-31T04:08:03.598Z,54.03
2018-03-31T04:10:32.726Z,45.77
2018-03-31T04:13:03.053Z,50.47
2018-03-31T04:15:32.536Z,41.10
2018-03-31T04:18:02.043Z,77.00
2018-03-31T04:20:30.215Z,48.20
2018-03-31T04:22:59.062Z,51.20
2018-03-31T04:25:27.984Z,59.07
2018-03-31T04:27:57.905Z,50.93
2018-03-31T04:30:27.611Z,45.23
2018-03-31T04:32:56.179Z,37.60
2018-03-31T04:35:25.107Z,38.70
2018-03-31T04:37:53.896Z,33.37
2018-03-31T04:40:23.673Z,32.70
2018-03-31T04:42:52.897Z,27.53
2018-03-31T04:45:21.930Z,31.53
2018-03-31T04:47:50.183Z,32.03
2018-03-31T04:50:18.989Z,25.47
2018-03-31T04:52:47.537Z,30.97
2018-03-31T04:55:15.550Z,39.97
2018-03-31T04:57:43.792Z,40.20
2018-03-31T05:00:11.935Z,48.83
2018-03-31T05:02:40.135Z,36.40
2018-03-31T05:05:08.422Z,28.70
2018-03-31T05:07:37.273Z,45.10
2018-03-31T05:10:05.385Z,46.77
2018-03-31T05:12:33.656Z,47.40
2018-03-31T05:15:01.660Z,53.53
2018-03-31T05:17:29.905Z,55.47
2018-03-31T05:19:58.050Z,55.10
2018-03-31T05:22:26.154Z,54.30
2018-03-31T05:24:54.506Z,87.27
2018-03-31T05:27:22.549Z,74.00
2018-03-31T05:29:50.883Z,107.17
2018-03-31T05:32:19.777Z,110.33
2018-03-31T05:34:47.957Z,126.47
2018-03-31T05:37:16.754Z,110.27
2018-03-31T05:39:45.742Z,134.33
2018-03-31T05:42:13.853Z,153.37
2018-03-31T05:44:41.780Z,115.53
2018-03-31T05:47:09.792Z,127.77
2018-03-31T05:49:38.033Z,97.80
2018-03-31T05:52:06.205Z,123.00
2018-03-31T05:54:35.270Z,94.33
2018-03-31T05:57:04.089Z,94.73
2018-03-31T05:59:33.186Z,82.63
2018-03-31T06:02:01.094Z,100.17
2018-03-31T06:04:29.232Z,94.43
2018-03-31T06:06:57.522Z,88.00
2018-03-31T06:09:26.194Z,82.27
2018-03-31T06:11:54.207Z,109.03
2018-03-31T06:14:22.544Z,88.37
2018-03-31T06:16:50.734Z,79.27
2018-03-31T06:19:18.894Z,74.37
2018-03-31T06:21:47.788Z,70.97
2018-03-31T06:24:16.140Z,67.80
2018-03-31T06:26:44.238Z,76.67
2018-03-31T06:29:12.417Z,57.80
2018-03-31T06:31:41.512Z,67.63
2018-03-31T06:34:09.494Z,66.70
2018-03-31T06:36:38.388Z,52.90
2018-03-31T06:39:07.164Z,44.90
2018-03-31T06:41:35.255Z,41.40
2018-03-31T06:44:03.939Z,42.57
2018-03-31T06:46:32.931Z,43.33
2018-03-31T06:49:01.710Z,50.97
2018-03-31T06:51:29.905Z,36.40
2018-03-31T06:53:57.958Z,40.53
2018-03-31T06:56:25.938Z,34.33
2018-03-31T06:58:54.936Z,39.00
2018-03-31T07:01:23.711Z,39.40
2018-03-31T07:03:53.334Z,28.30
2018-03-31T07:06:22.019Z,41.43
2018-03-31T07:08:51.016Z,33.70
2018-03-31T07:11:19.767Z,33.67
2018-03-31T07:13:48.069Z,32.00
2018-03-31T07:16:16.249Z,26.17
2018-03-31T07:18:45.315Z,34.60
2018-03-31T07:21:13.252Z,26.20
2018-03-31T07:23:41.386Z,18.43
2018-03-31T07:26:11.105Z,28.13
2018-03-31T07:28:39.169Z,45.10
2018-03-31T07:31:07.243Z,31.57
2018-03-31T07:33:35.325Z,42.50
2018-03-31T07:36:04.442Z,29.37
2018-03-31T07:38:32.690Z,24.03
2018-03-31T07:41:00.774Z,25.73
2018-03-31T07:43:29.902Z,36.77
2018-03-31T07:45:58.035Z,31.37
2018-03-31T07:48:26.183Z,24.97
2018-03-31T07:50:54.487Z,33.63
2018-03-31T07:53:22.773Z,28.00
2018-03-31T07:55:51.779Z,26.03
2018-03-31T07:58:20.622Z,32.10
2018-03-31T08:00:48.737Z,30.47
2018-03-31T08:03:17.450Z,27.67
2018-03-31T08:05:45.690Z,30.10
2018-03-31T08:08:13.775Z,30.50
2018-03-31T08:10:42.766Z,29.57
2018-03-31T08:13:11.622Z,39.43
2018-03-31T08:15:39.927Z,25.77
2018-03-31T08:18:08.182Z,24.50
2018-03-31T08:20:36.380Z,28.20
2018-03-31T08:23:04.671Z,24.30
2018-03-31T08:25:33.522Z,19.33
2018-03-31T08:28:01.826Z,14.87
2018-03-31T08:30:30.013Z,22.00
2018-03-31T08:32:57.910Z,20.27
2018-03-31T08:35:26.251Z,23.23
2018-03-31T08:37:54.262Z,26.77
2018-03-31T08:40:22.400Z,27.57
2018-03-31T08:42:50.681Z,29.90
2018-03-31T08:45:19.539Z,29.43
2018-03-31T08:47:47.842Z,24.30
2018-03-31T08:50:15.820Z,20.13
2018-03-31T08:52:43.826Z,20.73
2018-03-31T08:55:12.279Z,26.13
2018-03-31T08:57:40.355Z,22.27
2018-03-31T09:00:09.349Z,21.30
2018-03-31T09:02:38.093Z,16.20
2018-03-31T09:05:06.304Z,26.03
2018-03-31T09:07:34.475Z,30.43
2018-03-31T09:10:03.542Z,19.73
2018-03-31T09:12:31.644Z,20.40
2018-03-31T09:14:59.820Z,25.10
2018-03-31T09:17:28.006Z,22.97
2018-03-31T09:19:56.726Z,20.87
2018-03-31T09:22:25.267Z,21.57
2018-03-31T09:24:53.179Z,21.50
2018-03-31T09:27:21.313Z,28.10
2018-03-31T09:29:49.663Z,21.33
2018-03-31T09:32:17.764Z,22.67
2018-03-31T09:34:46.044Z,18.93
2018-03-31T09:37:15.111Z,24.23
2018-03-31T09:39:43.047Z,23.93
2018-03-31T09:42:11.386Z,27.63
2018-03-31T09:44:39.601Z,29.53
2018-03-31T09:47:07.632Z,22.77
2018-03-31T09:49:35.810Z,25.63
2018-03-31T09:52:03.990Z,28.00
2018-03-31T09:54:32.787Z,24.10
2018-03-31T09:57:01.997Z,27.37
2018-03-31T09:59:30.146Z,21.93
2018-03-31T10:01:58.297Z,27.53
2018-03-31T10:04:26.606Z,28.87
2018-03-31T10:06:54.746Z,31.97
2018-03-31T10:09:22.688Z,33.53
2018-03-31T10:11:51.126Z,25.77
2018-03-31T10:14:19.133Z,26.67
2018-03-31T10:16:47.273Z,29.83
2018-03-31T10:19:15.628Z,30.33
2018-03-31T10:21:43.724Z,35.83
2018-03-31T10:24:11.901Z,35.43
2018-03-31T10:26:40.967Z,44.73
2018-03-31T10:29:09.104Z,36.37
2018-03-31T10:31:37.244Z,36.40
2018-03-31T10:34:05.458Z,38.73
2018-03-31T10:36:33.494Z,40.53
2018-03-31T10:39:01.638Z,39.23
2018-03-31T10:41:29.946Z,42.77
2018-03-31T10:43:58.098Z,45.87
2018-03-31T10:46:26.195Z,44.97
2018-03-31T10:48:54.649Z,49.97
2018-03-31T10:51:22.852Z,51.33
2018-03-31T10:53:51.025Z,58.27
2018-03-31T10:56:19.115Z,59.60
2018-03-31T10:58:47.935Z,65.13
2018-03-31T11:01:16.269Z,57.10
2018-03-31T11:03:44.350Z,53.37
2018-03-31T11:06:13.347Z,54.17
2018-03-31T11:08:41.408Z,51.60
2018-03-31T11:11:09.763Z,48.90
2018-03-31T11:13:37.760Z,49.60
2018-03-31T11:16:05.834Z,41.70
2018-03-31T11:18:34.041Z,41.90
2018-03-31T11:21:02.182Z,40.07
2018-03-31T11:23:30.052Z,45.67
2018-03-31T11:25:58.162Z,50.23
2018-03-31T11:28:26.300Z,48.97
2018-03-31T11:30:54.581Z,53.50
2018-03-31T11:33:23.443Z,60.83
2018-03-31T11:35:51.746Z,54.57
2018-03-31T11:38:21.329Z,55.53
2018-03-31T11:40:49.631Z,61.73
2018-03-31T11:43:17.807Z,60.13
2018-03-31T11:45:45.715Z,70.37
2018-03-31T11:48:13.850Z,62.83
2018-03-31T11:50:41.935Z,57.30
2018-03-31T11:53:10.932Z,62.80
2018-03-31T11:55:39.785Z,62.70
2018-03-31T11:58:08.088Z,58.37
2018-03-31T12:00:36.505Z,75.37
2018-03-31T12:03:04.848Z,69.80
2018-03-31T12:05:32.946Z,70.77
2018-03-31T12:08:01.886Z,61.37
2018-03-31T12:10:30.878Z,83.00
2018-03-31T12:12:59.186Z,91.97
2018-03-31T12:15:27.165Z,78.83
2018-03-31T12:17:55.333Z,103.40
2018-03-31T12:20:23.713Z,95.07
2018-03-31T12:22:51.617Z,87.60
2018-03-31T12:25:19.654Z,83.97
2018-03-31T12:27:47.903Z,81.60
2018-03-31T12:30:16.004Z,91.83
2018-03-31T12:32:44.179Z,74.57
2018-03-31T12:35:13.251Z,72.03
2018-03-31T12:37:41.347Z,81.20
2018-03-31T12:40:11.163Z,73.50
2018-03-31T12:42:39.065Z,76.47
2018-03-31T12:45:07.208Z,59.30
2018-03-31T12:47:35.420Z,73.17
2018-03-31T12:50:03.558Z,65.90
2018-03-31T12:52:31.847Z,60.37
2018-03-31T12:55:00.840Z,89.93
2018-03-31T12:57:29.734Z,76.13
2018-03-31T12:59:58.692Z,72.27
2018-03-31T13:02:26.807Z,68.43
2018-03-31T13:04:54.963Z,64.93
2018-03-31T13:07:23.281Z,56.30
2018-03-31T13:09:51.416Z,60.47
2018-03-31T13:12:19.634Z,71.03
2018-03-31T13:14:47.974Z,80.93
2018-03-31T13:17:16.050Z,72.50
2018-03-31T13:19:45.052Z,60.33
2018-03-31T13:22:13.901Z,61.87
2018-03-31T13:24:42.208Z,61.07
2018-03-31T13:27:10.361Z,56.23
2018-03-31T13:29:38.291Z,54.30
2018-03-31T13:32:06.632Z,63.53
2018-03-31T13:34:34.520Z,62.70
2018-03-31T13:37:02.571Z,54.17
2018-03-31T13:39:31.021Z,70.37
2018-03-31T13:41:59.128Z,56.60
2018-03-31T13:44:27.301Z,56.87
2018-03-31T13:46:55.391Z,60.80
2018-03-31T13:49:24.076Z,58.70
2018-03-31T13:51:53.072Z,70.53
2018-03-31T13:54:21.846Z,57.10
2018-03-31T13:56:50.247Z,61.43
2018-03-31T13:59:18.375Z,57.53
2018-03-31T14:01:46.491Z,67.90
2018-03-31T14:04:15.308Z,65.67
2018-03-31T14:06:43.439Z,75.97
2018-03-31T14:09:11.631Z,63.80
2018-03-31T14:11:40.403Z,55.57
2018-03-31T14:14:09.408Z,55.33
2018-03-31T14:16:38.189Z,52.00
2018-03-31T14:19:06.369Z,47.83
2018-03-31T14:21:35.163Z,48.33
2018-03-31T14:24:04.760Z,59.40
2018-03-31T14:26:32.906Z,64.17
2018-03-31T14:29:01.010Z,62.30
2018-03-31T14:31:29.389Z,63.33
2018-03-31T14:33:57.565Z,57.97
2018-03-31T14:36:25.944Z,60.87
2018-03-31T14:38:53.855Z,52.47
2018-03-31T14:41:21.989Z,73.87
2018-03-31T14:43:50.279Z,68.27
2018-03-31T14:46:19.130Z,75.90
2018-03-31T14:48:47.434Z,65.97
2018-03-31T14:51:15.582Z,77.37
2018-03-31T14:53:43.699Z,68.13
2018-03-31T14:56:12.415Z,78.30
2018-03-31T14:58:40.753Z,91.77
2018-03-31T15:01:08.833Z,100.80
2018-03-31T15:03:37.832Z,86.77
2018-03-31T15:06:06.723Z,88.90
2018-03-31T15:08:35.715Z,84.73
2018-03-31T15:11:03.778Z,104.10
2018-03-31T15:13:31.951Z,97.27
2018-03-31T15:16:01.053Z,75.83
2018-03-31T15:18:28.958Z,81.90
2018-03-31T15:20:56.992Z,88.23
2018-03-31T15:23:25.278Z,88.93
2018-03-31T15:25:54.133Z,92.33
2018-03-31T15:28:22.436Z,75.63
2018-03-31T15:30:50.612Z,69.93
2018-03-31T15:33:19.607Z,93.33
2018-03-31T15:35:47.520Z,80.80
2018-03-31T15:38:15.547Z,75.83
2018-03-31T15:40:43.898Z,84.27
2018-03-31T15:43:12.103Z,71.63
2018-03-31T15:45:40.073Z,83.20
2018-03-31T15:48:08.296Z,88.30
2018-03-31T15:50:36.425Z,68.03
2018-03-31T15:53:04.709Z,64.57
2018-03-31T15:55:33.561Z,88.93
2018-03-31T15:58:01.870Z,81.20
2018-03-31T16:00:30.046Z,75.97
2018-03-31T16:02:58.944Z,73.20
2018-03-31T16:05:27.727Z,79.10
2018-03-31T16:07:56.127Z,72.43
2018-03-31T16:10:24.386Z,76.77
2018-03-31T16:12:52.498Z,88.17
2018-03-31T16:15:20.529Z,74.67
2018-03-31T16:17:48.784Z,92.93
2018-03-31T16:20:16.885Z,104.33
2018-03-31T16:22:45.578Z,85.50
2018-03-31T16:25:13.749Z,67.70
2018-03-31T16:27:41.922Z,78.37
2018-03-31T16:30:10.913Z,91.70
2018-03-31T16:32:38.922Z,92.40
2018-03-31T16:35:07.058Z,91.70
2018-03-31T16:37:35.284Z,74.60
2018-03-31T16:40:03.410Z,80.37
2018-03-31T16:42:31.702Z,92.67
2018-03-31T16:45:00.555Z,89.57
2018-03-31T16:47:30.102Z,68.33
2018-03-31T16:49:58.783Z,89.30
2018-03-31T16:52:27.877Z,77.23
2018-03-31T16:54:55.944Z,71.93
2018-03-31T16:57:24.175Z,68.53
2018-03-31T16:59:52.312Z,75.13
2018-03-31T17:02:20.366Z,74.23
2018-03-31T17:04:48.587Z,58.40
2018-03-31T17:07:16.613Z,73.80
2018-03-31T17:09:44.968Z,82.47
2018-03-31T17:12:13.169Z,63.97
2018-03-31T17:14:41.343Z,67.53
2018-03-31T17:17:09.327Z,71.67
2018-03-31T17:19:38.180Z,76.40
2018-03-31T17:22:06.280Z,72.10
2018-03-31T17:24:34.453Z,70.73
2018-03-31T17:27:02.567Z,55.87
2018-03-31T17:29:30.703Z,74.53
2018-03-31T17:31:58.909Z,72.50
2018-03-31T17:34:27.259Z,67.17
2018-03-31T17:36:55.347Z,84.93
2018-03-31T17:39:23.709Z,66.73
2018-03-31T17:41:51.795Z,59.73
2018-03-31T17:44:20.652Z,94.57
2018-03-31T17:46:48.749Z,73.50
2018-03-31T17:49:16.923Z,70.70
2018-03-31T17:51:45.011Z,87.10
2018-03-31T17:54:13.695Z,104.20
2018-03-31T17:56:42.692Z,88.37
2018-03-31T17:59:11.542Z,102.37
2018-03-31T18:01:39.846Z,87.47
2018-03-31T18:04:08.022Z,104.93
2018-03-31T18:06:37.295Z,103.07
2018-03-31T18:09:05.371Z,83.60
2018-03-31T18:11:33.890Z,101.83
2018-03-31T18:14:02.056Z,100.80
2018-03-31T18:16:31.460Z,98.23
2018-03-31T18:18:59.444Z,91.43
2018-03-31T18:21:28.394Z,95.20
2018-03-31T18:23:56.703Z,94.10
2018-03-31T18:26:24.990Z,114.33
2018-03-31T18:28:53.768Z,92.03
2018-03-31T18:31:21.853Z,112.53
2018-03-31T18:33:50.644Z,113.20
2018-03-31T18:36:18.908Z,106.23
2018-03-31T18:38:46.992Z,107.00
2018-03-31T18:41:15.156Z,88.10
2018-03-31T18:43:43.441Z,102.90
2018-03-31T18:46:11.508Z,97.50
2018-03-31T18:48:41.398Z,101.10
2018-03-31T18:51:09.498Z,103.97
2018-03-31T18:53:37.846Z,91.80
2018-03-31T18:56:05.784Z,106.40
2018-03-31T18:58:33.826Z,90.77
2018-03-31T19:01:02.108Z,103.57
2018-03-31T19:03:30.859Z,106.13
2018-03-31T19:05:59.169Z,94.10
2018-03-31T19:08:27.311Z,109.63
2018-03-31T19:10:55.261Z,116.53
2018-03-31T19:13:23.383Z,104.53
2018-03-31T19:15:51.462Z,107.90
2018-03-31T19:18:19.649Z,108.60
2018-03-31T19:20:48.024Z,106.30
2018-03-31T19:23:16.081Z,120.90
2018-03-31T19:25:44.360Z,105.23
2018-03-31T19:28:13.353Z,112.23
2018-03-31T19:30:46.756Z,107.13
2018-03-31T19:33:15.849Z,116.17
2018-03-31T19:35:49.656Z,111.50
2018-03-31T19:38:18.138Z,118.73
2018-03-31T19:40:46.313Z,120.57
2018-03-31T19:43:15.383Z,120.33
2018-03-31T19:45:43.330Z,115.80
2018-03-31T19:48:11.460Z,126.17
2018-03-31T19:50:39.671Z,114.73
2018-03-31T19:53:07.806Z,107.93
2018-03-31T19:55:35.990Z,97.17
2018-03-31T19:58:04.986Z,110.37
2018-03-31T20:00:33.764Z,129.50
2018-03-31T20:03:01.860Z,112.00
2018-03-31T20:05:30.566Z,132.90
2018-03-31T20:07:58.904Z,139.03
2018-03-31T20:10:27.051Z,100.43
2018-03-31T20:12:55.152Z,111.97
2018-03-31T20:15:23.706Z,142.30
2018-03-31T20:17:51.708Z,103.23
2018-03-31T20:20:19.885Z,122.97
2018-03-31T20:22:48.094Z,105.40
2018-03-31T20:25:16.161Z,107.10
2018-03-31T20:27:44.279Z,117.07
2018-03-31T20:30:12.584Z,99.03
2018-03-31T20:32:40.731Z,101.10
2018-03-31T20:35:09.037Z,113.63
2018-03-31T20:37:37.260Z,116.27
2018-03-31T20:40:05.296Z,97.20
2018-03-31T20:42:33.357Z,114.17
2018-03-31T20:45:01.559Z,117.77
2018-03-31T20:47:30.366Z,113.47
2018-03-31T20:49:58.703Z,117.73
2018-03-31T20:52:26.787Z,115.93
2018-03-31T20:54:55.777Z,95.40
2018-03-31T20:57:23.945Z,107.27
2018-03-31T20:59:53.041Z,100.13
2018-03-31T21:02:22.657Z,118.00
2018-03-31T21:04:51.719Z,93.03
2018-03-31T21:07:19.659Z,121.30
2018-03-31T21:09:47.690Z,130.77
2018-03-31T21:12:15.981Z,128.60
2018-03-31T21:14:44.836Z,123.67
2018-03-31T21:17:13.239Z,116.47
2018-03-31T21:19:41.387Z,126.30
2018-03-31T21:22:09.692Z,132.83
2018-03-31T21:24:37.871Z,114.93
2018-03-31T21:27:05.779Z,134.70
2018-03-31T21:29:34.019Z,120.60
2018-03-31T21:32:02.057Z,115.87
2018-03-31T21:34:30.158Z,129.57
2018-03-31T21:36:58.614Z,118.73
2018-03-31T21:39:26.715Z,97.77
2018-03-31T21:41:55.067Z,129.10
2018-03-31T21:44:23.007Z,141.33
2018-03-31T21:46:51.138Z,117.53
2018-03-31T21:49:19.430Z,118.20
2018-03-31T21:51:48.206Z,118.80
2018-03-31T21:54:17.324Z,119.73
2018-03-31T21:56:46.093Z,118.20
2018-03-31T21:59:15.190Z,118.40
2018-03-31T22:01:43.099Z,107.33
2018-03-31T22:04:11.233Z,115.80
2018-03-31T22:06:39.623Z,127.47
2018-03-31T22:09:08.374Z,139.67
2018-03-31T22:11:36.680Z,132.53
2018-03-31T22:14:10.190Z,114.93
2018-03-31T22:16:39.278Z,132.90
2018-03-31T22:19:07.525Z,116.20
2018-03-31T22:21:35.730Z,95.60
2018-03-31T22:24:03.906Z,115.73
2018-03-31T22:26:32.969Z,83.73
2018-03-31T22:29:00.871Z,117.93
2018-03-31T22:31:29.046Z,121.07
2018-03-31T22:33:57.262Z,105.70
2018-03-31T22:36:25.395Z,124.37
2018-03-31T22:38:53.687Z,115.93
2018-03-31T22:41:22.433Z,108.40
2018-03-31T22:43:50.741Z,110.87
2018-03-31T22:46:18.887Z,111.53
2018-03-31T22:48:46.993Z,107.10
2018-03-31T22:51:15.268Z,90.03
2018-03-31T22:53:43.175Z,113.20
2018-03-31T22:56:11.283Z,97.73
2018-03-31T22:58:39.499Z,119.70
2018-03-31T23:01:08.276Z,106.13
2018-03-31T23:03:37.381Z,105.97
2018-03-31T23:06:05.757Z,113.63
2018-03-31T23:08:34.170Z,126.47
2018-03-31T23:11:02.819Z,111.73
2018-03-31T23:13:31.302Z,100.57
2018-03-31T23:15:59.789Z,114.33
2018-03-31T23:18:28.164Z,125.00
2018-03-31T23:20:57.715Z,120.90
2018-03-31T23:23:25.845Z,118.63
2018-03-31T23:25:55.148Z,97.67
2018-03-31T23:28:23.527Z,99.37
2018-03-31T23:30:52.050Z,101.13
2018-03-31T23:33:20.499Z,101.57
2018-03-31T23:35:49.231Z,112.27
2018-03-31T23:38:17.326Z,104.53
2018-03-31T23:40:45.439Z,105.03
2018-03-31T23:43:15.322Z,96.83
2018-03-31T23:45:43.359Z,110.57
2018-03-31T23:48:11.698Z,144.90
2018-03-31T23:50:40.690Z,103.37
2018-03-31T23:53:08.878Z,97.27
2018-03-31T23:55:37.667Z,91.83
2018-03-31T23:58:06.623Z,120.40
